sensor_id;sensor_type;location;lat;lon;timestamp;P1;durP1;ratioP1;P2;durP2;ratioP2
11488;SDS011;5801;50.804;12.638;2024-02-21T00:02:22;8.07;;;2.88;;
11488;SDS011;5801;50.804;12.638;2024-02-21T00:04:49;11.27;;;2.83;;
11488;SDS011;5801;50.804;12.638;2024-02-21T00:07:15;13.25;;;2.78;;
11488;SDS011;5801;50.804;12.638;2024-02-21T00:09:41;7.90;;;2.65;;
11488;SDS011;5801;50.804;12.638;2024-02-21T00:12:08;6.68;;;2.63;;
11488;SDS011;5801;50.804;12.638;2024-02-21T00:14:34;5.47;;;2.63;;
11488;SDS011;5801;50.804;12.638;2024-02-21T00:17:00;7.28;;;2.70;;
11488;SDS011;5801;50.804;12.638;2024-02-21T00:19:26;8.48;;;2.90;;
11488;SDS011;5801;50.804;12.638;2024-02-21T00:21:52;8.57;;;2.30;;
11488;SDS011;5801;50.804;12.638;2024-02-21T00:24:18;8.10;;;2.40;;
11488;SDS011;5801;50.804;12.638;2024-02-21T00:26:44;8.55;;;2.50;;
11488;SDS011;5801;50.804;12.638;2024-02-21T00:29:10;9.50;;;3.08;;
11488;SDS011;5801;50.804;12.638;2024-02-21T00:31:36;6.75;;;2.97;;
11488;SDS011;5801;50.804;12.638;2024-02-21T00:34:02;16.30;;;3.78;;
11488;SDS011;5801;50.804;12.638;2024-02-21T00:36:28;10.52;;;3.58;;
11488;SDS011;5801;50.804;12.638;2024-02-21T00:38:54;8.73;;;2.83;;
11488;SDS011;5801;50.804;12.638;2024-02-21T00:41:20;14.07;;;3.03;;
11488;SDS011;5801;50.804;12.638;2024-02-21T00:43:46;9.73;;;2.50;;
11488;SDS011;5801;50.804;12.638;2024-02-21T00:46:15;6.57;;;2.70;;
11488;SDS011;5801;50.804;12.638;2024-02-21T00:48:41;15.30;;;3.10;;
11488;SDS011;5801;50.804;12.638;2024-02-21T00:51:07;12.13;;;2.50;;
11488;SDS011;5801;50.804;12.638;2024-02-21T00:53:33;10.27;;;3.00;;
11488;SDS011;5801;50.804;12.638;2024-02-21T00:56:01;10.07;;;2.72;;
11488;SDS011;5801;50.804;12.638;2024-02-21T00:58:27;11.27;;;2.75;;
11488;SDS011;5801;50.804;12.638;2024-02-21T01:00:53;7.05;;;2.45;;
11488;SDS011;5801;50.804;12.638;2024-02-21T01:03:19;8.32;;;2.75;;
11488;SDS011;5801;50.804;12.638;2024-02-21T01:05:45;13.75;;;3.30;;
11488;SDS011;5801;50.804;12.638;2024-02-21T01:08:11;8.88;;;2.53;;
11488;SDS011;5801;50.804;12.638;2024-02-21T01:10:38;10.45;;;3.22;;
11488;SDS011;5801;50.804;12.638;2024-02-21T01:13:04;9.95;;;3.08;;
11488;SDS011;5801;50.804;12.638;2024-02-21T01:15:30;15.75;;;3.05;;
11488;SDS011;5801;50.804;12.638;2024-02-21T01:17:56;7.47;;;2.47;;
11488;SDS011;5801;50.804;12.638;2024-02-21T01:20:22;6.70;;;3.13;;
11488;SDS011;5801;50.804;12.638;2024-02-21T01:22:48;11.68;;;3.67;;
11488;SDS011;5801;50.804;12.638;2024-02-21T01:25:14;14.57;;;3.17;;
11488;SDS011;5801;50.804;12.638;2024-02-21T01:27:40;8.23;;;3.65;;
11488;SDS011;5801;50.804;12.638;2024-02-21T01:30:07;12.43;;;3.85;;
11488;SDS011;5801;50.804;12.638;2024-02-21T01:32:33;5.97;;;3.35;;
11488;SDS011;5801;50.804;12.638;2024-02-21T01:34:59;10.60;;;3.00;;
11488;SDS011;5801;50.804;12.638;2024-02-21T01:37:25;8.82;;;3.20;;
11488;SDS011;5801;50.804;12.638;2024-02-21T01:39:51;7.22;;;3.28;;
11488;SDS011;5801;50.804;12.638;2024-02-21T01:42:17;10.88;;;3.45;;
11488;SDS011;5801;50.804;12.638;2024-02-21T01:44:43;11.65;;;3.58;;
11488;SDS011;5801;50.804;12.638;2024-02-21T01:47:10;7.45;;;2.92;;
11488;SDS011;5801;50.804;12.638;2024-02-21T01:49:38;5.75;;;2.75;;
11488;SDS011;5801;50.804;12.638;2024-02-21T01:52:06;13.30;;;3.60;;
11488;SDS011;5801;50.804;12.638;2024-02-21T01:54:32;9.85;;;3.35;;
11488;SDS011;5801;50.804;12.638;2024-02-21T01:56:58;13.13;;;4.05;;
11488;SDS011;5801;50.804;12.638;2024-02-21T01:59:24;7.68;;;3.00;;
11488;SDS011;5801;50.804;12.638;2024-02-21T02:01:50;8.93;;;2.47;;
11488;SDS011;5801;50.804;12.638;2024-02-21T02:04:17;10.68;;;3.33;;
11488;SDS011;5801;50.804;12.638;2024-02-21T02:06:45;7.15;;;3.00;;
11488;SDS011;5801;50.804;12.638;2024-02-21T02:09:11;9.50;;;3.65;;
11488;SDS011;5801;50.804;12.638;2024-02-21T02:11:37;11.60;;;3.55;;
11488;SDS011;5801;50.804;12.638;2024-02-21T02:14:02;8.70;;;3.42;;
11488;SDS011;5801;50.804;12.638;2024-02-21T02:16:29;9.48;;;3.70;;
11488;SDS011;5801;50.804;12.638;2024-02-21T02:18:55;15.05;;;3.63;;
11488;SDS011;5801;50.804;12.638;2024-02-21T02:21:23;8.07;;;3.63;;
11488;SDS011;5801;50.804;12.638;2024-02-21T02:23:58;12.95;;;2.95;;
11488;SDS011;5801;50.804;12.638;2024-02-21T02:26:24;8.55;;;3.22;;
11488;SDS011;5801;50.804;12.638;2024-02-21T02:28:50;4.82;;;2.97;;
11488;SDS011;5801;50.804;12.638;2024-02-21T02:31:16;6.50;;;3.22;;
11488;SDS011;5801;50.804;12.638;2024-02-21T02:33:42;7.85;;;3.40;;
11488;SDS011;5801;50.804;12.638;2024-02-21T02:36:09;7.32;;;3.60;;
11488;SDS011;5801;50.804;12.638;2024-02-21T02:38:35;8.07;;;3.22;;
11488;SDS011;5801;50.804;12.638;2024-02-21T02:41:02;10.77;;;3.50;;
11488;SDS011;5801;50.804;12.638;2024-02-21T02:43:28;9.48;;;3.58;;
11488;SDS011;5801;50.804;12.638;2024-02-21T02:49:00;8.77;;;3.55;;
11488;SDS011;5801;50.804;12.638;2024-02-21T02:51:26;12.02;;;3.28;;
11488;SDS011;5801;50.804;12.638;2024-02-21T02:53:52;12.65;;;3.92;;
11488;SDS011;5801;50.804;12.638;2024-02-21T02:56:18;10.35;;;3.58;;
11488;SDS011;5801;50.804;12.638;2024-02-21T02:58:44;9.18;;;3.15;;
11488;SDS011;5801;50.804;12.638;2024-02-21T03:01:11;12.95;;;3.17;;
11488;SDS011;5801;50.804;12.638;2024-02-21T03:03:37;7.57;;;3.47;;
11488;SDS011;5801;50.804;12.638;2024-02-21T03:06:03;11.45;;;3.58;;
11488;SDS011;5801;50.804;12.638;2024-02-21T03:08:29;11.02;;;4.07;;
11488;SDS011;5801;50.804;12.638;2024-02-21T03:10:55;11.05;;;3.42;;
11488;SDS011;5801;50.804;12.638;2024-02-21T03:13:21;7.10;;;3.00;;
11488;SDS011;5801;50.804;12.638;2024-02-21T03:15:47;8.38;;;3.40;;
11488;SDS011;5801;50.804;12.638;2024-02-21T03:18:13;12.82;;;3.63;;
11488;SDS011;5801;50.804;12.638;2024-02-21T03:20:39;7.60;;;3.60;;
11488;SDS011;5801;50.804;12.638;2024-02-21T03:23:05;8.02;;;3.58;;
11488;SDS011;5801;50.804;12.638;2024-02-21T03:25:31;6.63;;;3.08;;
11488;SDS011;5801;50.804;12.638;2024-02-21T03:27:57;13.15;;;3.95;;
11488;SDS011;5801;50.804;12.638;2024-02-21T03:30:23;9.65;;;3.78;;
11488;SDS011;5801;50.804;12.638;2024-02-21T03:32:49;9.45;;;3.53;;
11488;SDS011;5801;50.804;12.638;2024-02-21T03:35:15;11.65;;;4.10;;
11488;SDS011;5801;50.804;12.638;2024-02-21T03:37:40;11.93;;;3.83;;
11488;SDS011;5801;50.804;12.638;2024-02-21T03:40:08;7.88;;;3.63;;
11488;SDS011;5801;50.804;12.638;2024-02-21T03:42:34;9.50;;;3.88;;
11488;SDS011;5801;50.804;12.638;2024-02-21T03:45:00;9.25;;;3.35;;
11488;SDS011;5801;50.804;12.638;2024-02-21T03:47:26;12.32;;;4.60;;
11488;SDS011;5801;50.804;12.638;2024-02-21T03:49:52;11.57;;;3.65;;
11488;SDS011;5801;50.804;12.638;2024-02-21T03:52:18;12.95;;;4.10;;
11488;SDS011;5801;50.804;12.638;2024-02-21T03:54:44;10.25;;;3.55;;
11488;SDS011;5801;50.804;12.638;2024-02-21T03:57:11;13.70;;;4.13;;
11488;SDS011;5801;50.804;12.638;2024-02-21T03:59:37;19.00;;;5.60;;
11488;SDS011;5801;50.804;12.638;2024-02-21T04:02:05;14.13;;;4.35;;
11488;SDS011;5801;50.804;12.638;2024-02-21T04:04:33;13.02;;;4.93;;
11488;SDS011;5801;50.804;12.638;2024-02-21T04:07:02;21.30;;;8.25;;
11488;SDS011;5801;50.804;12.638;2024-02-21T04:09:31;21.85;;;7.25;;
11488;SDS011;5801;50.804;12.638;2024-02-21T04:11:58;13.70;;;4.88;;
11488;SDS011;5801;50.804;12.638;2024-02-21T04:14:25;14.07;;;4.85;;
11488;SDS011;5801;50.804;12.638;2024-02-21T04:16:51;16.13;;;4.45;;
11488;SDS011;5801;50.804;12.638;2024-02-21T04:19:16;10.63;;;4.35;;
11488;SDS011;5801;50.804;12.638;2024-02-21T04:21:42;15.90;;;4.40;;
11488;SDS011;5801;50.804;12.638;2024-02-21T04:24:09;9.30;;;4.28;;
11488;SDS011;5801;50.804;12.638;2024-02-21T04:26:35;9.88;;;3.72;;
11488;SDS011;5801;50.804;12.638;2024-02-21T04:29:01;14.05;;;4.15;;
11488;SDS011;5801;50.804;12.638;2024-02-21T04:31:27;18.02;;;3.78;;
11488;SDS011;5801;50.804;12.638;2024-02-21T04:33:53;18.58;;;4.53;;
11488;SDS011;5801;50.804;12.638;2024-02-21T04:36:18;10.82;;;3.95;;
11488;SDS011;5801;50.804;12.638;2024-02-21T04:38:45;17.77;;;4.53;;
11488;SDS011;5801;50.804;12.638;2024-02-21T04:41:11;15.55;;;5.15;;
11488;SDS011;5801;50.804;12.638;2024-02-21T04:43:37;13.02;;;4.07;;
11488;SDS011;5801;50.804;12.638;2024-02-21T04:46:03;14.05;;;3.97;;
11488;SDS011;5801;50.804;12.638;2024-02-21T04:48:29;6.55;;;3.75;;
11488;SDS011;5801;50.804;12.638;2024-02-21T04:50:55;9.65;;;3.55;;
11488;SDS011;5801;50.804;12.638;2024-02-21T04:53:21;9.80;;;4.38;;
11488;SDS011;5801;50.804;12.638;2024-02-21T04:55:47;13.93;;;4.15;;
11488;SDS011;5801;50.804;12.638;2024-02-21T04:58:13;13.35;;;4.07;;
11488;SDS011;5801;50.804;12.638;2024-02-21T05:00:39;10.05;;;3.58;;
11488;SDS011;5801;50.804;12.638;2024-02-21T05:03:05;17.65;;;4.55;;
11488;SDS011;5801;50.804;12.638;2024-02-21T05:05:32;10.35;;;3.78;;
11488;SDS011;5801;50.804;12.638;2024-02-21T05:07:58;6.13;;;3.35;;
11488;SDS011;5801;50.804;12.638;2024-02-21T05:10:24;9.13;;;4.05;;
11488;SDS011;5801;50.804;12.638;2024-02-21T05:12:50;10.93;;;4.82;;
11488;SDS011;5801;50.804;12.638;2024-02-21T05:15:16;10.00;;;3.78;;
11488;SDS011;5801;50.804;12.638;2024-02-21T05:17:42;7.13;;;3.28;;
11488;SDS011;5801;50.804;12.638;2024-02-21T05:20:08;18.65;;;5.18;;
11488;SDS011;5801;50.804;12.638;2024-02-21T05:22:34;7.38;;;3.83;;
11488;SDS011;5801;50.804;12.638;2024-02-21T05:25:00;5.97;;;3.60;;
11488;SDS011;5801;50.804;12.638;2024-02-21T05:27:26;12.43;;;4.60;;
11488;SDS011;5801;50.804;12.638;2024-02-21T05:29:53;14.57;;;4.18;;
11488;SDS011;5801;50.804;12.638;2024-02-21T05:32:19;8.15;;;3.42;;
11488;SDS011;5801;50.804;12.638;2024-02-21T05:34:48;14.77;;;5.00;;
11488;SDS011;5801;50.804;12.638;2024-02-21T05:37:14;14.55;;;5.00;;
11488;SDS011;5801;50.804;12.638;2024-02-21T05:39:40;11.40;;;4.15;;
11488;SDS011;5801;50.804;12.638;2024-02-21T05:42:06;12.32;;;3.78;;
11488;SDS011;5801;50.804;12.638;2024-02-21T05:44:32;12.48;;;5.25;;
11488;SDS011;5801;50.804;12.638;2024-02-21T05:46:57;11.95;;;3.83;;
11488;SDS011;5801;50.804;12.638;2024-02-21T05:49:23;14.82;;;3.47;;
11488;SDS011;5801;50.804;12.638;2024-02-21T05:51:49;7.40;;;3.95;;
11488;SDS011;5801;50.804;12.638;2024-02-21T05:54:15;7.47;;;3.92;;
11488;SDS011;5801;50.804;12.638;2024-02-21T05:56:45;11.70;;;5.00;;
11488;SDS011;5801;50.804;12.638;2024-02-21T05:59:11;10.55;;;3.45;;
11488;SDS011;5801;50.804;12.638;2024-02-21T06:01:37;13.63;;;3.95;;
11488;SDS011;5801;50.804;12.638;2024-02-21T06:04:03;8.77;;;3.67;;
11488;SDS011;5801;50.804;12.638;2024-02-21T06:06:29;6.30;;;3.88;;
11488;SDS011;5801;50.804;12.638;2024-02-21T06:08:55;15.60;;;6.43;;
11488;SDS011;5801;50.804;12.638;2024-02-21T06:11:23;9.32;;;3.78;;
11488;SDS011;5801;50.804;12.638;2024-02-21T06:13:49;10.63;;;3.67;;
11488;SDS011;5801;50.804;12.638;2024-02-21T06:16:15;14.88;;;4.57;;
11488;SDS011;5801;50.804;12.638;2024-02-21T06:18:41;13.18;;;3.88;;
11488;SDS011;5801;50.804;12.638;2024-02-21T06:21:07;17.38;;;5.20;;
11488;SDS011;5801;50.804;12.638;2024-02-21T06:23:33;11.35;;;4.43;;
11488;SDS011;5801;50.804;12.638;2024-02-21T06:25:59;20.35;;;5.20;;
11488;SDS011;5801;50.804;12.638;2024-02-21T06:28:25;8.52;;;3.90;;
11488;SDS011;5801;50.804;12.638;2024-02-21T06:30:51;11.55;;;3.42;;
11488;SDS011;5801;50.804;12.638;2024-02-21T06:33:18;13.25;;;4.25;;
11488;SDS011;5801;50.804;12.638;2024-02-21T06:35:47;10.05;;;3.97;;
11488;SDS011;5801;50.804;12.638;2024-02-21T06:38:13;11.77;;;4.22;;
11488;SDS011;5801;50.804;12.638;2024-02-21T06:40:42;14.13;;;4.57;;
11488;SDS011;5801;50.804;12.638;2024-02-21T06:43:13;9.23;;;3.65;;
11488;SDS011;5801;50.804;12.638;2024-02-21T06:45:40;12.07;;;4.03;;
11488;SDS011;5801;50.804;12.638;2024-02-21T06:48:06;8.98;;;3.90;;
11488;SDS011;5801;50.804;12.638;2024-02-21T06:50:32;11.65;;;3.95;;
11488;SDS011;5801;50.804;12.638;2024-02-21T06:52:59;10.35;;;4.40;;
11488;SDS011;5801;50.804;12.638;2024-02-21T06:55:25;14.57;;;5.45;;
11488;SDS011;5801;50.804;12.638;2024-02-21T06:57:51;12.07;;;5.00;;
11488;SDS011;5801;50.804;12.638;2024-02-21T07:00:17;18.20;;;4.00;;
11488;SDS011;5801;50.804;12.638;2024-02-21T07:02:43;9.43;;;4.75;;
11488;SDS011;5801;50.804;12.638;2024-02-21T07:05:09;13.75;;;4.53;;
11488;SDS011;5801;50.804;12.638;2024-02-21T07:07:35;14.60;;;4.38;;
11488;SDS011;5801;50.804;12.638;2024-02-21T07:10:01;14.65;;;4.30;;
11488;SDS011;5801;50.804;12.638;2024-02-21T07:12:27;13.68;;;4.53;;
11488;SDS011;5801;50.804;12.638;2024-02-21T07:14:53;13.95;;;3.88;;
11488;SDS011;5801;50.804;12.638;2024-02-21T07:17:19;9.50;;;3.80;;
11488;SDS011;5801;50.804;12.638;2024-02-21T07:19:45;10.95;;;4.32;;
11488;SDS011;5801;50.804;12.638;2024-02-21T07:22:11;8.43;;;4.22;;
11488;SDS011;5801;50.804;12.638;2024-02-21T07:24:37;10.52;;;4.65;;
11488;SDS011;5801;50.804;12.638;2024-02-21T07:27:03;7.80;;;3.65;;
11488;SDS011;5801;50.804;12.638;2024-02-21T07:29:30;19.90;;;5.47;;
11488;SDS011;5801;50.804;12.638;2024-02-21T07:31:56;11.95;;;4.07;;
11488;SDS011;5801;50.804;12.638;2024-02-21T07:34:22;10.38;;;4.03;;
11488;SDS011;5801;50.804;12.638;2024-02-21T07:36:48;9.27;;;3.88;;
11488;SDS011;5801;50.804;12.638;2024-02-21T07:39:14;12.98;;;4.55;;
11488;SDS011;5801;50.804;12.638;2024-02-21T07:41:41;5.82;;;3.97;;
11488;SDS011;5801;50.804;12.638;2024-02-21T07:44:09;11.13;;;3.72;;
11488;SDS011;5801;50.804;12.638;2024-02-21T07:46:35;9.70;;;4.47;;
11488;SDS011;5801;50.804;12.638;2024-02-21T07:49:01;11.70;;;5.25;;
11488;SDS011;5801;50.804;12.638;2024-02-21T07:51:28;8.57;;;3.80;;
11488;SDS011;5801;50.804;12.638;2024-02-21T07:53:53;14.77;;;4.22;;
11488;SDS011;5801;50.804;12.638;2024-02-21T07:56:19;11.60;;;4.25;;
11488;SDS011;5801;50.804;12.638;2024-02-21T07:58:45;9.60;;;3.63;;
11488;SDS011;5801;50.804;12.638;2024-02-21T08:01:11;13.30;;;4.43;;
11488;SDS011;5801;50.804;12.638;2024-02-21T08:03:42;8.57;;;3.63;;
11488;SDS011;5801;50.804;12.638;2024-02-21T08:06:11;10.60;;;3.90;;
11488;SDS011;5801;50.804;12.638;2024-02-21T08:08:38;7.18;;;3.90;;
11488;SDS011;5801;50.804;12.638;2024-02-21T08:11:04;5.47;;;3.75;;
11488;SDS011;5801;50.804;12.638;2024-02-21T08:13:30;8.90;;;3.70;;
11488;SDS011;5801;50.804;12.638;2024-02-21T08:15:56;8.48;;;4.03;;
11488;SDS011;5801;50.804;12.638;2024-02-21T08:18:22;7.88;;;3.85;;
11488;SDS011;5801;50.804;12.638;2024-02-21T08:20:48;8.13;;;3.75;;
11488;SDS011;5801;50.804;12.638;2024-02-21T08:23:15;6.72;;;3.67;;
11488;SDS011;5801;50.804;12.638;2024-02-21T08:25:43;12.05;;;3.88;;
11488;SDS011;5801;50.804;12.638;2024-02-21T08:28:09;8.07;;;4.03;;
11488;SDS011;5801;50.804;12.638;2024-02-21T08:30:35;7.97;;;3.47;;
11488;SDS011;5801;50.804;12.638;2024-02-21T08:33:01;12.25;;;3.55;;
11488;SDS011;5801;50.804;12.638;2024-02-21T08:35:28;8.35;;;3.35;;
11488;SDS011;5801;50.804;12.638;2024-02-21T08:37:55;7.10;;;3.55;;
11488;SDS011;5801;50.804;12.638;2024-02-21T08:40:21;8.85;;;3.28;;
11488;SDS011;5801;50.804;12.638;2024-02-21T08:42:47;8.10;;;2.95;;
11488;SDS011;5801;50.804;12.638;2024-02-21T08:45:14;7.00;;;3.65;;
11488;SDS011;5801;50.804;12.638;2024-02-21T08:47:39;8.82;;;3.13;;
11488;SDS011;5801;50.804;12.638;2024-02-21T08:50:05;5.90;;;2.92;;
11488;SDS011;5801;50.804;12.638;2024-02-21T08:52:32;7.50;;;3.17;;
11488;SDS011;5801;50.804;12.638;2024-02-21T08:54:58;7.05;;;3.05;;
11488;SDS011;5801;50.804;12.638;2024-02-21T08:57:24;5.53;;;2.85;;
11488;SDS011;5801;50.804;12.638;2024-02-21T08:59:50;11.85;;;3.85;;
11488;SDS011;5801;50.804;12.638;2024-02-21T09:02:16;8.57;;;3.17;;
11488;SDS011;5801;50.804;12.638;2024-02-21T09:04:42;5.05;;;3.13;;
11488;SDS011;5801;50.804;12.638;2024-02-21T09:07:11;9.27;;;3.15;;
11488;SDS011;5801;50.804;12.638;2024-02-21T09:09:37;12.05;;;2.78;;
11488;SDS011;5801;50.804;12.638;2024-02-21T09:12:06;6.72;;;3.30;;
11488;SDS011;5801;50.804;12.638;2024-02-21T09:14:32;7.28;;;3.40;;
11488;SDS011;5801;50.804;12.638;2024-02-21T09:16:58;12.68;;;3.17;;
11488;SDS011;5801;50.804;12.638;2024-02-21T09:19:25;5.70;;;3.25;;
11488;SDS011;5801;50.804;12.638;2024-02-21T09:21:50;9.35;;;3.35;;
11488;SDS011;5801;50.804;12.638;2024-02-21T09:24:17;6.90;;;3.53;;
11488;SDS011;5801;50.804;12.638;2024-02-21T09:26:42;7.50;;;3.72;;
11488;SDS011;5801;50.804;12.638;2024-02-21T09:29:08;8.85;;;3.17;;
11488;SDS011;5801;50.804;12.638;2024-02-21T09:31:35;3.58;;;2.67;;
11488;SDS011;5801;50.804;12.638;2024-02-21T09:34:02;9.27;;;3.30;;
11488;SDS011;5801;50.804;12.638;2024-02-21T09:36:27;8.05;;;3.05;;
11488;SDS011;5801;50.804;12.638;2024-02-21T09:38:53;9.63;;;2.92;;
11488;SDS011;5801;50.804;12.638;2024-02-21T09:41:25;11.68;;;3.67;;
11488;SDS011;5801;50.804;12.638;2024-02-21T09:43:54;8.65;;;2.60;;
11488;SDS011;5801;50.804;12.638;2024-02-21T09:46:35;9.40;;;2.85;;
11488;SDS011;5801;50.804;12.638;2024-02-21T09:49:29;6.43;;;3.42;;
11488;SDS011;5801;50.804;12.638;2024-02-21T09:52:03;4.55;;;2.55;;
11488;SDS011;5801;50.804;12.638;2024-02-21T09:54:32;7.40;;;3.28;;
11488;SDS011;5801;50.804;12.638;2024-02-21T09:56:59;8.88;;;3.58;;
11488;SDS011;5801;50.804;12.638;2024-02-21T09:59:26;11.85;;;3.22;;
11488;SDS011;5801;50.804;12.638;2024-02-21T10:01:54;3.60;;;2.50;;
11488;SDS011;5801;50.804;12.638;2024-02-21T10:04:20;8.30;;;3.78;;
11488;SDS011;5801;50.804;12.638;2024-02-21T10:06:46;6.13;;;2.45;;
11488;SDS011;5801;50.804;12.638;2024-02-21T10:09:26;5.70;;;2.95;;
11488;SDS011;5801;50.804;12.638;2024-02-21T10:11:53;7.57;;;2.65;;
11488;SDS011;5801;50.804;12.638;2024-02-21T10:14:20;8.00;;;2.60;;
11488;SDS011;5801;50.804;12.638;2024-02-21T10:16:47;9.02;;;2.97;;
11488;SDS011;5801;50.804;12.638;2024-02-21T10:19:21;4.82;;;2.20;;
11488;SDS011;5801;50.804;12.638;2024-02-21T10:21:59;8.90;;;2.78;;
11488;SDS011;5801;50.804;12.638;2024-02-21T10:24:30;6.57;;;2.88;;
11488;SDS011;5801;50.804;12.638;2024-02-21T10:27:02;5.40;;;2.58;;
11488;SDS011;5801;50.804;12.638;2024-02-21T10:29:38;3.63;;;2.40;;
11488;SDS011;5801;50.804;12.638;2024-02-21T10:32:08;5.18;;;2.42;;
11488;SDS011;5801;50.804;12.638;2024-02-21T10:34:39;5.85;;;2.40;;
11488;SDS011;5801;50.804;12.638;2024-02-21T10:37:09;4.10;;;1.90;;
11488;SDS011;5801;50.804;12.638;2024-02-21T10:39:39;4.90;;;2.20;;
11488;SDS011;5801;50.804;12.638;2024-02-21T10:42:06;5.13;;;2.65;;
11488;SDS011;5801;50.804;12.638;2024-02-21T10:44:39;4.75;;;2.17;;
11488;SDS011;5801;50.804;12.638;2024-02-21T10:47:07;5.90;;;2.83;;
11488;SDS011;5801;50.804;12.638;2024-02-21T10:49:41;5.50;;;2.67;;
11488;SDS011;5801;50.804;12.638;2024-02-21T10:52:24;6.80;;;2.72;;
11488;SDS011;5801;50.804;12.638;2024-02-21T10:55:21;4.22;;;1.90;;
11488;SDS011;5801;50.804;12.638;2024-02-21T10:57:59;7.90;;;2.50;;
11488;SDS011;5801;50.804;12.638;2024-02-21T11:00:26;4.25;;;2.78;;
11488;SDS011;5801;50.804;12.638;2024-02-21T11:02:55;9.80;;;2.55;;
11488;SDS011;5801;50.804;12.638;2024-02-21T11:05:23;6.50;;;2.45;;
11488;SDS011;5801;50.804;12.638;2024-02-21T11:07:49;5.65;;;1.92;;
11488;SDS011;5801;50.804;12.638;2024-02-21T11:10:25;9.82;;;2.53;;
11488;SDS011;5801;50.804;12.638;2024-02-21T11:13:07;5.57;;;2.40;;
11488;SDS011;5801;50.804;12.638;2024-02-21T11:15:34;4.45;;;2.15;;
11488;SDS011;5801;50.804;12.638;2024-02-21T11:17:59;5.60;;;2.40;;
11488;SDS011;5801;50.804;12.638;2024-02-21T11:20:35;3.05;;;2.30;;
11488;SDS011;5801;50.804;12.638;2024-02-21T11:23:02;6.00;;;2.38;;
11488;SDS011;5801;50.804;12.638;2024-02-21T11:25:29;4.75;;;2.20;;
11488;SDS011;5801;50.804;12.638;2024-02-21T11:28:04;6.05;;;2.35;;
11488;SDS011;5801;50.804;12.638;2024-02-21T11:30:32;5.20;;;2.20;;
11488;SDS011;5801;50.804;12.638;2024-02-21T11:33:01;5.47;;;2.40;;
11488;SDS011;5801;50.804;12.638;2024-02-21T11:35:30;4.10;;;1.80;;
11488;SDS011;5801;50.804;12.638;2024-02-21T11:40:43;4.85;;;2.00;;
11488;SDS011;5801;50.804;12.638;2024-02-21T11:43:10;4.85;;;2.13;;
11488;SDS011;5801;50.804;12.638;2024-02-21T11:45:36;6.57;;;2.42;;
11488;SDS011;5801;50.804;12.638;2024-02-21T11:48:02;6.20;;;2.03;;
11488;SDS011;5801;50.804;12.638;2024-02-21T11:50:30;6.75;;;2.33;;
11488;SDS011;5801;50.804;12.638;2024-02-21T11:52:57;4.75;;;2.20;;
11488;SDS011;5801;50.804;12.638;2024-02-21T11:55:23;6.50;;;1.73;;
11488;SDS011;5801;50.804;12.638;2024-02-21T11:57:49;4.75;;;2.03;;
11488;SDS011;5801;50.804;12.638;2024-02-21T12:00:16;5.07;;;2.15;;
11488;SDS011;5801;50.804;12.638;2024-02-21T12:02:45;5.15;;;2.42;;
11488;SDS011;5801;50.804;12.638;2024-02-21T12:05:12;5.68;;;2.22;;
11488;SDS011;5801;50.804;12.638;2024-02-21T12:07:38;3.92;;;2.20;;
11488;SDS011;5801;50.804;12.638;2024-02-21T12:10:10;7.15;;;2.65;;
11488;SDS011;5801;50.804;12.638;2024-02-21T12:12:37;6.78;;;2.05;;
11488;SDS011;5801;50.804;12.638;2024-02-21T12:15:04;5.43;;;2.17;;
11488;SDS011;5801;50.804;12.638;2024-02-21T12:17:32;6.82;;;2.15;;
11488;SDS011;5801;50.804;12.638;2024-02-21T12:19:59;3.30;;;1.95;;
11488;SDS011;5801;50.804;12.638;2024-02-21T12:22:26;4.85;;;1.80;;
11488;SDS011;5801;50.804;12.638;2024-02-21T12:24:53;3.72;;;1.85;;
11488;SDS011;5801;50.804;12.638;2024-02-21T12:27:18;4.47;;;1.92;;
11488;SDS011;5801;50.804;12.638;2024-02-21T12:29:44;4.07;;;1.90;;
11488;SDS011;5801;50.804;12.638;2024-02-21T12:32:10;4.07;;;2.03;;
11488;SDS011;5801;50.804;12.638;2024-02-21T12:34:37;4.65;;;2.40;;
11488;SDS011;5801;50.804;12.638;2024-02-21T12:37:03;7.43;;;2.70;;
11488;SDS011;5801;50.804;12.638;2024-02-21T12:39:29;4.68;;;2.22;;
11488;SDS011;5801;50.804;12.638;2024-02-21T12:41:56;4.10;;;2.50;;
11488;SDS011;5801;50.804;12.638;2024-02-21T12:44:22;5.50;;;1.98;;
11488;SDS011;5801;50.804;12.638;2024-02-21T12:46:49;5.03;;;2.60;;
11488;SDS011;5801;50.804;12.638;2024-02-21T12:49:17;5.15;;;2.58;;
11488;SDS011;5801;50.804;12.638;2024-02-21T12:51:43;8.98;;;2.75;;
11488;SDS011;5801;50.804;12.638;2024-02-21T12:54:11;7.38;;;2.97;;
11488;SDS011;5801;50.804;12.638;2024-02-21T12:56:37;6.22;;;2.40;;
11488;SDS011;5801;50.804;12.638;2024-02-21T12:59:04;6.53;;;2.20;;
11488;SDS011;5801;50.804;12.638;2024-02-21T13:01:34;4.38;;;2.20;;
11488;SDS011;5801;50.804;12.638;2024-02-21T13:04:00;5.57;;;2.25;;
11488;SDS011;5801;50.804;12.638;2024-02-21T13:06:26;12.00;;;2.38;;
11488;SDS011;5801;50.804;12.638;2024-02-21T13:08:52;4.82;;;2.00;;
11488;SDS011;5801;50.804;12.638;2024-02-21T13:11:18;6.18;;;2.42;;
11488;SDS011;5801;50.804;12.638;2024-02-21T13:13:44;3.92;;;2.08;;
11488;SDS011;5801;50.804;12.638;2024-02-21T13:16:10;6.40;;;1.88;;
11488;SDS011;5801;50.804;12.638;2024-02-21T13:18:36;6.38;;;2.42;;
11488;SDS011;5801;50.804;12.638;2024-02-21T13:21:04;2.70;;;2.03;;
11488;SDS011;5801;50.804;12.638;2024-02-21T13:23:30;5.63;;;2.38;;
11488;SDS011;5801;50.804;12.638;2024-02-21T13:25:56;2.42;;;1.65;;
11488;SDS011;5801;50.804;12.638;2024-02-21T13:28:22;3.15;;;1.83;;
11488;SDS011;5801;50.804;12.638;2024-02-21T13:30:48;6.40;;;1.80;;
11488;SDS011;5801;50.804;12.638;2024-02-21T13:33:13;6.28;;;1.70;;
11488;SDS011;5801;50.804;12.638;2024-02-21T13:35:39;3.90;;;1.80;;
11488;SDS011;5801;50.804;12.638;2024-02-21T13:38:05;5.65;;;1.65;;
11488;SDS011;5801;50.804;12.638;2024-02-21T13:40:33;2.25;;;1.85;;
11488;SDS011;5801;50.804;12.638;2024-02-21T13:42:59;4.47;;;2.25;;
11488;SDS011;5801;50.804;12.638;2024-02-21T13:45:24;2.83;;;1.50;;
11488;SDS011;5801;50.804;12.638;2024-02-21T13:47:50;5.00;;;1.90;;
11488;SDS011;5801;50.804;12.638;2024-02-21T13:50:16;4.55;;;1.98;;
11488;SDS011;5801;50.804;12.638;2024-02-21T13:52:43;5.53;;;1.90;;
11488;SDS011;5801;50.804;12.638;2024-02-21T13:55:08;4.85;;;2.25;;
11488;SDS011;5801;50.804;12.638;2024-02-21T13:57:35;6.53;;;1.70;;
11488;SDS011;5801;50.804;12.638;2024-02-21T14:00:02;13.57;;;2.10;;
11488;SDS011;5801;50.804;12.638;2024-02-21T14:02:29;4.72;;;1.80;;
11488;SDS011;5801;50.804;12.638;2024-02-21T14:04:55;4.47;;;1.95;;
11488;SDS011;5801;50.804;12.638;2024-02-21T14:07:21;4.15;;;1.83;;
11488;SDS011;5801;50.804;12.638;2024-02-21T14:09:47;3.25;;;1.65;;
11488;SDS011;5801;50.804;12.638;2024-02-21T14:12:13;5.43;;;2.38;;
11488;SDS011;5801;50.804;12.638;2024-02-21T14:14:41;6.90;;;2.00;;
11488;SDS011;5801;50.804;12.638;2024-02-21T14:17:08;3.30;;;2.20;;
11488;SDS011;5801;50.804;12.638;2024-02-21T14:19:34;6.22;;;2.05;;
11488;SDS011;5801;50.804;12.638;2024-02-21T14:22:00;5.93;;;1.67;;
11488;SDS011;5801;50.804;12.638;2024-02-21T14:24:27;2.60;;;1.92;;
11488;SDS011;5801;50.804;12.638;2024-02-21T14:26:53;4.35;;;2.17;;
11488;SDS011;5801;50.804;12.638;2024-02-21T14:29:20;4.13;;;2.30;;
11488;SDS011;5801;50.804;12.638;2024-02-21T14:31:46;4.63;;;1.67;;
11488;SDS011;5801;50.804;12.638;2024-02-21T14:34:12;6.93;;;2.25;;
11488;SDS011;5801;50.804;12.638;2024-02-21T14:36:38;6.40;;;1.85;;
11488;SDS011;5801;50.804;12.638;2024-02-21T14:39:05;3.08;;;1.80;;
11488;SDS011;5801;50.804;12.638;2024-02-21T14:41:31;5.25;;;2.00;;
11488;SDS011;5801;50.804;12.638;2024-02-21T14:43:57;5.40;;;2.25;;
11488;SDS011;5801;50.804;12.638;2024-02-21T14:46:25;5.43;;;1.85;;
11488;SDS011;5801;50.804;12.638;2024-02-21T14:48:53;4.25;;;2.03;;